Portada
METAR-TAF:

METAR-TAF

Aeroports :

Kotah, Índia

latitud: 25-09-36N, longitud: 075-50-44E, altitud: 273 m

METAR: manca

Hora: 05:55 (00:25 UTC)

Pronòstic

L'informe es va fer fa 1 hora i 25 minuts, a les 23:00 UTC
Pronòstic vàlid del 21 a les 00 UTC al 21 a les 09 UTC
Vent 3 kt amb direcció variable
Visibilitat: 1500 m
Escasses núvols a una alçada de 10000 ft
calitja, boirina
Evolucionant progressivament
l' 21 a les 05 UTC al 21 a les 07 UTC
Vent 6 kt del Sud-Oest
Visibilitat: 3000 m
Núvols disperses a una alçada de 10000 ft
calitja

TAF: VIKO 202300Z 2100/2109 VRB03KT 1500 HZ BR FEW100 BECMG 2105/2107 23006KT 3000 HZ SCT100

Observacions i pronòstics meteorològics de més de 4000 aeroports (METAR i TAF).

Les estacions disponibles són els punts grocs i vermells al mapa.

Posi el ratolí al punt desitjat per veure el nom de l'estació.

Feu clic per veure les observacions i els pronòstics meteorològics.

Per canviar el mapa: feu clic els botons verds amb una creu de color negre per apropar; al botó verd amb un guió per allunyar la imatge; o en les fletxes verdes per a mapes adjacents.


METAR-TAF: